Strona główna
METAR-TAF:

METAR-TAF

Lotnisko :

Port lotniczy Ndżamena

Ndżamena, Czad

Szerokość geograficzna: 12-08N, Długość geograficzna: 015-02E, wysokość: 295 m

Aktualna obserwacja pogody

Raport powstał 1 godzina i 18 minut temu, godzina 07:00 UTC
Wiatr 7 kt od północ
Temperatura 19°C
Wilgotność 21%
Ciśnienie 1014 hPa
Widzialność: 4000 m
pył

METAR: FTTJ 230700Z 36007KT 4000 DU NSC 19/M04 Q1014 NOSIG

czas: 09:18 (08:18 UTC)

Prognoza

Raport powstał 3 godziny i 18 minut temu, godzina 05:00 UTC
Prognoza ważna od 23 godzina 06 UTC do 24 godzina 12 UTC
Wiatr 10 kt od północ
Widzialność: 6000 m
Przejściowo
od 23 godzina 16 UTC do 23 godzina 19 UTC
Widzialność: 4000 m
zmętnienie
Stopniowe zmiany
od 24 godzina 05 UTC do 24 godzina 07 UTC
Widzialność 10 km lub więcej
Brak chmur poniżej 1500 m i brak chmur cumulonimbus

TAF: FTTJ 230500Z 2306/2412 36010KT 6000 NSC TEMPO 2316/2319 4000 HZ BECMG 2405/2407 CAVOK

Obserwacja i prognoza pogody dla ponad 4000 lotnisk (raport METAR i TAF).

Dostępne stacje oznaczono żółtymi i czerwonymi punktami na mapie.

Najedź kursorem aby zobaczyć nazwę stacji.

Kliknij aby zobaczyć obserwacje i prognozy pogody.

Aby zmienić mapę: kliknij na zielony przycisk z czarnym krzyżykiem, aby powiększyć; na zielony przycisk z myślnikiem, aby pomniejszyć; na zielone strzałki, aby przejść do map sąsiednich.


METAR-TAF: